sensor_id;sensor_type;location;lat;lon;timestamp;temperature;humidity
20231;DHT22;10274;49.022;9.338;2023-01-08T00:01:53;7.90;99.90
20231;DHT22;10274;49.022;9.338;2023-01-08T00:04:20;7.60;99.90
20231;DHT22;10274;49.022;9.338;2023-01-08T00:06:47;7.80;99.90
20231;DHT22;10274;49.022;9.338;2023-01-08T00:09:13;7.80;99.90
20231;DHT22;10274;49.022;9.338;2023-01-08T00:11:40;7.20;1.00
20231;DHT22;10274;49.022;9.338;2023-01-08T00:14:07;7.30;99.90
20231;DHT22;10274;49.022;9.338;2023-01-08T00:16:34;6.80;1.00
20231;DHT22;10274;49.022;9.338;2023-01-08T00:19:02;7.10;1.00
20231;DHT22;10274;49.022;9.338;2023-01-08T00:21:29;6.90;1.00
20231;DHT22;10274;49.022;9.338;2023-01-08T00:23:55;7.00;1.00
20231;DHT22;10274;49.022;9.338;2023-01-08T00:26:22;7.20;1.00
20231;DHT22;10274;49.022;9.338;2023-01-08T00:28:49;7.10;1.00
20231;DHT22;10274;49.022;9.338;2023-01-08T00:31:16;7.00;1.00
20231;DHT22;10274;49.022;9.338;2023-01-08T00:33:42;6.50;99.90
20231;DHT22;10274;49.022;9.338;2023-01-08T00:36:13;6.90;98.10
20231;DHT22;10274;49.022;9.338;2023-01-08T00:38:41;7.80;1.00
20231;DHT22;10274;49.022;9.338;2023-01-08T00:41:08;8.00;99.90
20231;DHT22;10274;49.022;9.338;2023-01-08T00:43:35;7.80;99.90
20231;DHT22;10274;49.022;9.338;2023-01-08T00:46:02;7.00;1.00
20231;DHT22;10274;49.022;9.338;2023-01-08T00:48:29;7.00;11.90
20231;DHT22;10274;49.022;9.338;2023-01-08T00:51:01;7.10;99.90
20231;DHT22;10274;49.022;9.338;2023-01-08T00:53:29;6.90;99.90
20231;DHT22;10274;49.022;9.338;2023-01-08T00:55:59;7.50;1.00
20231;DHT22;10274;49.022;9.338;2023-01-08T00:58:26;7.90;1.00
20231;DHT22;10274;49.022;9.338;2023-01-08T01:00:53;8.20;99.90
20231;DHT22;10274;49.022;9.338;2023-01-08T01:03:19;8.10;99.90
20231;DHT22;10274;49.022;9.338;2023-01-08T01:05:46;7.90;99.90
20231;DHT22;10274;49.022;9.338;2023-01-08T01:08:14;7.90;99.90
20231;DHT22;10274;49.022;9.338;2023-01-08T01:10:42;7.90;99.90
20231;DHT22;10274;49.022;9.338;2023-01-08T01:13:09;7.90;99.90
20231;DHT22;10274;49.022;9.338;2023-01-08T01:15:36;8.10;1.00
20231;DHT22;10274;49.022;9.338;2023-01-08T01:18:03;8.10;1.00
20231;DHT22;10274;49.022;9.338;2023-01-08T01:20:31;8.00;1.00
20231;DHT22;10274;49.022;9.338;2023-01-08T01:22:58;8.10;1.00
20231;DHT22;10274;49.022;9.338;2023-01-08T01:25:25;8.10;1.00
20231;DHT22;10274;49.022;9.338;2023-01-08T01:27:53;8.10;99.90
20231;DHT22;10274;49.022;9.338;2023-01-08T01:30:19;8.20;1.00
20231;DHT22;10274;49.022;9.338;2023-01-08T01:32:46;8.30;1.00
20231;DHT22;10274;49.022;9.338;2023-01-08T01:35:13;8.40;1.00
20231;DHT22;10274;49.022;9.338;2023-01-08T01:37:40;8.20;99.90
20231;DHT22;10274;49.022;9.338;2023-01-08T01:40:07;8.10;99.90
20231;DHT22;10274;49.022;9.338;2023-01-08T01:42:34;8.10;99.90
20231;DHT22;10274;49.022;9.338;2023-01-08T01:45:22;8.20;1.00
20231;DHT22;10274;49.022;9.338;2023-01-08T01:47:54;8.10;99.90
20231;DHT22;10274;49.022;9.338;2023-01-08T01:50:27;8.10;1.00
20231;DHT22;10274;49.022;9.338;2023-01-08T01:52:58;8.10;1.00
20231;DHT22;10274;49.022;9.338;2023-01-08T01:55:26;8.10;93.40
20231;DHT22;10274;49.022;9.338;2023-01-08T01:58:00;8.10;1.00
20231;DHT22;10274;49.022;9.338;2023-01-08T02:00:28;8.20;1.00
20231;DHT22;10274;49.022;9.338;2023-01-08T02:02:55;8.40;99.90
20231;DHT22;10274;49.022;9.338;2023-01-08T02:05:23;8.50;99.90
20231;DHT22;10274;49.022;9.338;2023-01-08T02:07:58;8.50;95.40
20231;DHT22;10274;49.022;9.338;2023-01-08T02:10:31;8.40;99.90
20231;DHT22;10274;49.022;9.338;2023-01-08T02:13:04;8.30;99.90
20231;DHT22;10274;49.022;9.338;2023-01-08T02:15:41;8.30;99.90
20231;DHT22;10274;49.022;9.338;2023-01-08T02:18:13;8.30;1.00
20231;DHT22;10274;49.022;9.338;2023-01-08T02:20:43;8.40;99.90
20231;DHT22;10274;49.022;9.338;2023-01-08T02:23:19;8.50;17.70
20231;DHT22;10274;49.022;9.338;2023-01-08T02:26:07;8.50;6.40
20231;DHT22;10274;49.022;9.338;2023-01-08T02:28:39;8.50;1.00
20231;DHT22;10274;49.022;9.338;2023-01-08T02:31:07;8.50;1.00
20231;DHT22;10274;49.022;9.338;2023-01-08T02:33:34;8.50;1.00
20231;DHT22;10274;49.022;9.338;2023-01-08T02:36:20;8.70;1.00
20231;DHT22;10274;49.022;9.338;2023-01-08T02:38:56;8.70;1.00
20231;DHT22;10274;49.022;9.338;2023-01-08T02:41:32;8.80;1.00
20231;DHT22;10274;49.022;9.338;2023-01-08T02:44:02;8.80;99.90
20231;DHT22;10274;49.022;9.338;2023-01-08T02:46:33;8.70;99.90
20231;DHT22;10274;49.022;9.338;2023-01-08T02:49:04;8.80;99.90
20231;DHT22;10274;49.022;9.338;2023-01-08T02:51:36;8.80;99.90
20231;DHT22;10274;49.022;9.338;2023-01-08T02:54:08;8.70;99.90
20231;DHT22;10274;49.022;9.338;2023-01-08T02:56:41;8.80;99.90
20231;DHT22;10274;49.022;9.338;2023-01-08T02:59:10;8.70;99.90
20231;DHT22;10274;49.022;9.338;2023-01-08T03:01:38;8.70;99.90
20231;DHT22;10274;49.022;9.338;2023-01-08T03:04:08;8.60;1.00
20231;DHT22;10274;49.022;9.338;2023-01-08T03:06:37;8.60;99.90
20231;DHT22;10274;49.022;9.338;2023-01-08T03:09:04;8.70;99.90
20231;DHT22;10274;49.022;9.338;2023-01-08T03:11:36;8.60;53.80
20231;DHT22;10274;49.022;9.338;2023-01-08T03:14:10;8.70;26.10
20231;DHT22;10274;49.022;9.338;2023-01-08T03:16:39;8.70;1.00
20231;DHT22;10274;49.022;9.338;2023-01-08T03:19:10;8.80;1.00
20231;DHT22;10274;49.022;9.338;2023-01-08T03:21:39;8.90;1.00
20231;DHT22;10274;49.022;9.338;2023-01-08T03:24:07;9.00;1.00
20231;DHT22;10274;49.022;9.338;2023-01-08T03:26:37;9.00;99.90
20231;DHT22;10274;49.022;9.338;2023-01-08T03:29:07;9.00;99.90
20231;DHT22;10274;49.022;9.338;2023-01-08T03:31:35;9.10;99.90
20231;DHT22;10274;49.022;9.338;2023-01-08T03:34:03;9.10;99.90
20231;DHT22;10274;49.022;9.338;2023-01-08T03:36:32;9.10;1.00
20231;DHT22;10274;49.022;9.338;2023-01-08T03:39:05;9.10;99.90
20231;DHT22;10274;49.022;9.338;2023-01-08T03:41:35;9.00;99.90
20231;DHT22;10274;49.022;9.338;2023-01-08T03:44:02;8.90;99.90
20231;DHT22;10274;49.022;9.338;2023-01-08T03:46:32;9.00;57.50
20231;DHT22;10274;49.022;9.338;2023-01-08T03:49:00;9.10;99.90
20231;DHT22;10274;49.022;9.338;2023-01-08T03:51:27;9.10;1.00
20231;DHT22;10274;49.022;9.338;2023-01-08T03:53:57;9.20;1.00
20231;DHT22;10274;49.022;9.338;2023-01-08T03:56:24;9.20;1.00
20231;DHT22;10274;49.022;9.338;2023-01-08T03:58:51;9.20;1.00
20231;DHT22;10274;49.022;9.338;2023-01-08T04:01:17;9.20;1.00
20231;DHT22;10274;49.022;9.338;2023-01-08T04:03:45;9.10;1.00
20231;DHT22;10274;49.022;9.338;2023-01-08T04:06:12;8.90;1.00
20231;DHT22;10274;49.022;9.338;2023-01-08T04:08:39;9.00;1.00
20231;DHT22;10274;49.022;9.338;2023-01-08T04:11:06;9.10;1.00
20231;DHT22;10274;49.022;9.338;2023-01-08T04:13:32;9.10;1.00
20231;DHT22;10274;49.022;9.338;2023-01-08T04:15:59;9.10;1.00
20231;DHT22;10274;49.022;9.338;2023-01-08T04:18:26;9.00;1.00
20231;DHT22;10274;49.022;9.338;2023-01-08T04:20:54;9.00;1.00
20231;DHT22;10274;49.022;9.338;2023-01-08T04:23:20;9.10;1.00
20231;DHT22;10274;49.022;9.338;2023-01-08T04:25:47;9.20;1.00
20231;DHT22;10274;49.022;9.338;2023-01-08T04:28:13;9.00;1.00
20231;DHT22;10274;49.022;9.338;2023-01-08T04:30:40;9.00;1.00
20231;DHT22;10274;49.022;9.338;2023-01-08T04:33:07;9.30;1.00
20231;DHT22;10274;49.022;9.338;2023-01-08T04:35:33;9.40;99.90
20231;DHT22;10274;49.022;9.338;2023-01-08T04:38:01;9.40;99.90
20231;DHT22;10274;49.022;9.338;2023-01-08T04:40:28;9.50;99.90
20231;DHT22;10274;49.022;9.338;2023-01-08T04:42:55;9.40;99.90
20231;DHT22;10274;49.022;9.338;2023-01-08T04:45:22;9.40;99.90
20231;DHT22;10274;49.022;9.338;2023-01-08T04:47:54;9.40;99.90
20231;DHT22;10274;49.022;9.338;2023-01-08T04:50:21;9.40;99.90
20231;DHT22;10274;49.022;9.338;2023-01-08T04:52:47;9.40;99.90
20231;DHT22;10274;49.022;9.338;2023-01-08T04:55:16;9.40;99.90
20231;DHT22;10274;49.022;9.338;2023-01-08T04:57:42;9.50;99.90
20231;DHT22;10274;49.022;9.338;2023-01-08T05:00:11;9.50;99.90
20231;DHT22;10274;49.022;9.338;2023-01-08T05:02:37;9.50;99.90
20231;DHT22;10274;49.022;9.338;2023-01-08T05:05:05;9.40;99.90
20231;DHT22;10274;49.022;9.338;2023-01-08T05:07:32;9.30;99.90
20231;DHT22;10274;49.022;9.338;2023-01-08T05:09:58;9.30;99.90
20231;DHT22;10274;49.022;9.338;2023-01-08T05:12:26;9.30;99.90
20231;DHT22;10274;49.022;9.338;2023-01-08T05:14:53;9.30;99.90
20231;DHT22;10274;49.022;9.338;2023-01-08T05:17:20;9.20;99.90
20231;DHT22;10274;49.022;9.338;2023-01-08T05:19:46;9.20;99.90
20231;DHT22;10274;49.022;9.338;2023-01-08T05:22:13;9.10;99.90
20231;DHT22;10274;49.022;9.338;2023-01-08T05:24:40;9.10;1.00
20231;DHT22;10274;49.022;9.338;2023-01-08T05:27:06;9.10;1.00
20231;DHT22;10274;49.022;9.338;2023-01-08T05:29:34;9.10;99.90
20231;DHT22;10274;49.022;9.338;2023-01-08T05:32:01;9.20;1.00
20231;DHT22;10274;49.022;9.338;2023-01-08T05:34:28;9.20;1.00
20231;DHT22;10274;49.022;9.338;2023-01-08T05:36:54;9.00;1.00
20231;DHT22;10274;49.022;9.338;2023-01-08T05:39:21;8.90;99.90
20231;DHT22;10274;49.022;9.338;2023-01-08T05:41:47;8.90;99.90
20231;DHT22;10274;49.022;9.338;2023-01-08T05:44:14;8.70;99.90
20231;DHT22;10274;49.022;9.338;2023-01-08T05:46:42;8.50;1.00
20231;DHT22;10274;49.022;9.338;2023-01-08T05:49:09;8.50;1.00
20231;DHT22;10274;49.022;9.338;2023-01-08T05:51:35;8.50;1.00
20231;DHT22;10274;49.022;9.338;2023-01-08T05:54:02;8.40;1.00
20231;DHT22;10274;49.022;9.338;2023-01-08T05:56:29;8.30;97.60
20231;DHT22;10274;49.022;9.338;2023-01-08T05:58:55;8.30;99.90
20231;DHT22;10274;49.022;9.338;2023-01-08T06:01:22;8.30;99.90
20231;DHT22;10274;49.022;9.338;2023-01-08T06:03:51;8.20;1.00
20231;DHT22;10274;49.022;9.338;2023-01-08T06:06:20;8.40;1.00
20231;DHT22;10274;49.022;9.338;2023-01-08T06:08:46;8.40;1.00
20231;DHT22;10274;49.022;9.338;2023-01-08T06:11:13;8.50;1.00
20231;DHT22;10274;49.022;9.338;2023-01-08T06:13:41;8.50;1.00
20231;DHT22;10274;49.022;9.338;2023-01-08T06:16:08;8.50;1.00
20231;DHT22;10274;49.022;9.338;2023-01-08T06:18:35;8.50;1.00
20231;DHT22;10274;49.022;9.338;2023-01-08T06:21:04;8.50;1.00
20231;DHT22;10274;49.022;9.338;2023-01-08T06:23:30;8.50;1.00
20231;DHT22;10274;49.022;9.338;2023-01-08T06:25:59;8.60;1.00
20231;DHT22;10274;49.022;9.338;2023-01-08T06:28:26;8.50;1.00
20231;DHT22;10274;49.022;9.338;2023-01-08T06:30:52;8.60;1.00
20231;DHT22;10274;49.022;9.338;2023-01-08T06:33:19;8.50;1.00
20231;DHT22;10274;49.022;9.338;2023-01-08T06:35:46;8.50;1.00
20231;DHT22;10274;49.022;9.338;2023-01-08T06:38:14;8.50;1.00
20231;DHT22;10274;49.022;9.338;2023-01-08T06:40:43;8.50;1.00
20231;DHT22;10274;49.022;9.338;2023-01-08T06:43:10;8.50;13.20
20231;DHT22;10274;49.022;9.338;2023-01-08T06:45:36;8.60;1.00
20231;DHT22;10274;49.022;9.338;2023-01-08T06:48:04;8.60;3.10
20231;DHT22;10274;49.022;9.338;2023-01-08T06:50:33;8.50;7.90
20231;DHT22;10274;49.022;9.338;2023-01-08T06:53:00;8.60;1.00
20231;DHT22;10274;49.022;9.338;2023-01-08T06:55:28;8.60;15.50
20231;DHT22;10274;49.022;9.338;2023-01-08T06:57:54;8.60;1.00
20231;DHT22;10274;49.022;9.338;2023-01-08T07:00:21;8.60;2.80
20231;DHT22;10274;49.022;9.338;2023-01-08T07:02:50;8.50;24.80
20231;DHT22;10274;49.022;9.338;2023-01-08T07:05:17;8.50;35.60
20231;DHT22;10274;49.022;9.338;2023-01-08T07:07:43;8.50;43.40
20231;DHT22;10274;49.022;9.338;2023-01-08T07:10:10;8.60;10.50
20231;DHT22;10274;49.022;9.338;2023-01-08T07:12:38;8.60;35.90
20231;DHT22;10274;49.022;9.338;2023-01-08T07:15:06;8.50;51.40
20231;DHT22;10274;49.022;9.338;2023-01-08T07:17:32;8.50;69.90
20231;DHT22;10274;49.022;9.338;2023-01-08T07:19:59;8.50;64.10
20231;DHT22;10274;49.022;9.338;2023-01-08T07:22:26;8.50;67.20
20231;DHT22;10274;49.022;9.338;2023-01-08T07:24:53;8.50;76.60
20231;DHT22;10274;49.022;9.338;2023-01-08T07:27:20;8.50;72.30
20231;DHT22;10274;49.022;9.338;2023-01-08T07:29:48;8.60;49.30
20231;DHT22;10274;49.022;9.338;2023-01-08T07:32:14;8.70;42.00
20231;DHT22;10274;49.022;9.338;2023-01-08T07:34:41;8.60;64.50
20231;DHT22;10274;49.022;9.338;2023-01-08T07:37:08;8.60;61.30
20231;DHT22;10274;49.022;9.338;2023-01-08T07:39:34;8.60;68.80
20231;DHT22;10274;49.022;9.338;2023-01-08T07:42:01;8.50;83.80
20231;DHT22;10274;49.022;9.338;2023-01-08T07:44:28;8.50;93.20
20231;DHT22;10274;49.022;9.338;2023-01-08T07:46:56;8.50;97.60
20231;DHT22;10274;49.022;9.338;2023-01-08T07:49:22;8.50;96.00
20231;DHT22;10274;49.022;9.338;2023-01-08T07:51:49;8.50;92.30
20231;DHT22;10274;49.022;9.338;2023-01-08T07:54:16;8.50;97.70
20231;DHT22;10274;49.022;9.338;2023-01-08T07:56:43;8.50;99.90
20231;DHT22;10274;49.022;9.338;2023-01-08T07:59:09;8.50;99.90
20231;DHT22;10274;49.022;9.338;2023-01-08T08:01:36;8.60;93.30
20231;DHT22;10274;49.022;9.338;2023-01-08T08:04:04;8.60;87.50
20231;DHT22;10274;49.022;9.338;2023-01-08T08:06:31;8.50;99.90
20231;DHT22;10274;49.022;9.338;2023-01-08T08:08:57;8.50;99.90
20231;DHT22;10274;49.022;9.338;2023-01-08T08:11:24;8.50;99.90
20231;DHT22;10274;49.022;9.338;2023-01-08T08:13:51;8.50;99.90
20231;DHT22;10274;49.022;9.338;2023-01-08T08:16:18;8.50;99.90
20231;DHT22;10274;49.022;9.338;2023-01-08T08:18:44;8.50;99.90
20231;DHT22;10274;49.022;9.338;2023-01-08T08:21:12;8.60;99.20
20231;DHT22;10274;49.022;9.338;2023-01-08T08:23:39;8.60;99.90
20231;DHT22;10274;49.022;9.338;2023-01-08T08:26:05;8.60;99.90
20231;DHT22;10274;49.022;9.338;2023-01-08T08:28:32;8.60;99.90
20231;DHT22;10274;49.022;9.338;2023-01-08T08:30:59;8.50;99.90
20231;DHT22;10274;49.022;9.338;2023-01-08T08:33:25;8.60;99.90
20231;DHT22;10274;49.022;9.338;2023-01-08T08:35:52;8.60;99.90
20231;DHT22;10274;49.022;9.338;2023-01-08T08:38:20;8.60;99.90
20231;DHT22;10274;49.022;9.338;2023-01-08T08:43:15;8.60;99.90
20231;DHT22;10274;49.022;9.338;2023-01-08T08:45:41;8.60;99.90
20231;DHT22;10274;49.022;9.338;2023-01-08T08:48:08;8.60;99.90
20231;DHT22;10274;49.022;9.338;2023-01-08T08:50:36;8.60;99.90
20231;DHT22;10274;49.022;9.338;2023-01-08T08:53:04;8.60;99.90
20231;DHT22;10274;49.022;9.338;2023-01-08T08:55:33;8.60;99.90
20231;DHT22;10274;49.022;9.338;2023-01-08T08:58:05;8.60;99.90
20231;DHT22;10274;49.022;9.338;2023-01-08T09:00:32;8.60;99.90
20231;DHT22;10274;49.022;9.338;2023-01-08T09:02:59;8.60;99.90
20231;DHT22;10274;49.022;9.338;2023-01-08T09:05:26;8.60;99.90
20231;DHT22;10274;49.022;9.338;2023-01-08T09:07:53;8.60;99.90
20231;DHT22;10274;49.022;9.338;2023-01-08T09:10:19;8.60;99.90
20231;DHT22;10274;49.022;9.338;2023-01-08T09:12:47;8.60;99.90
20231;DHT22;10274;49.022;9.338;2023-01-08T09:15:14;8.60;99.90
20231;DHT22;10274;49.022;9.338;2023-01-08T09:17:41;8.60;99.90
20231;DHT22;10274;49.022;9.338;2023-01-08T09:20:08;8.60;99.90
20231;DHT22;10274;49.022;9.338;2023-01-08T09:22:35;8.60;99.90
20231;DHT22;10274;49.022;9.338;2023-01-08T09:25:02;8.70;98.70
20231;DHT22;10274;49.022;9.338;2023-01-08T09:27:28;8.60;99.90
20231;DHT22;10274;49.022;9.338;2023-01-08T09:29:56;8.60;99.90
20231;DHT22;10274;49.022;9.338;2023-01-08T09:32:23;8.60;99.90
20231;DHT22;10274;49.022;9.338;2023-01-08T09:34:50;8.70;99.90
20231;DHT22;10274;49.022;9.338;2023-01-08T09:37:16;8.70;99.90
20231;DHT22;10274;49.022;9.338;2023-01-08T09:39:43;8.60;99.90
20231;DHT22;10274;49.022;9.338;2023-01-08T09:42:10;8.70;99.90
20231;DHT22;10274;49.022;9.338;2023-01-08T09:44:42;8.80;94.40
20231;DHT22;10274;49.022;9.338;2023-01-08T09:47:21;8.60;99.90
20231;DHT22;10274;49.022;9.338;2023-01-08T09:49:52;8.60;99.90
20231;DHT22;10274;49.022;9.338;2023-01-08T09:52:20;8.60;99.90
20231;DHT22;10274;49.022;9.338;2023-01-08T09:54:46;8.60;99.90
20231;DHT22;10274;49.022;9.338;2023-01-08T09:57:16;8.70;99.90
20231;DHT22;10274;49.022;9.338;2023-01-08T09:59:43;8.70;99.90
20231;DHT22;10274;49.022;9.338;2023-01-08T10:02:15;8.70;99.90
20231;DHT22;10274;49.022;9.338;2023-01-08T10:04:42;8.80;93.10
20231;DHT22;10274;49.022;9.338;2023-01-08T10:07:13;8.80;93.70
20231;DHT22;10274;49.022;9.338;2023-01-08T10:09:43;8.80;94.00
20231;DHT22;10274;49.022;9.338;2023-01-08T10:12:10;8.80;95.20
20231;DHT22;10274;49.022;9.338;2023-01-08T10:14:39;8.90;73.10
20231;DHT22;10274;49.022;9.338;2023-01-08T10:17:19;8.90;59.80
20231;DHT22;10274;49.022;9.338;2023-01-08T10:19:49;8.80;78.70
20231;DHT22;10274;49.022;9.338;2023-01-08T10:22:19;8.80;80.40
20231;DHT22;10274;49.022;9.338;2023-01-08T10:24:46;8.90;72.70
20231;DHT22;10274;49.022;9.338;2023-01-08T10:27:14;8.90;53.10
20231;DHT22;10274;49.022;9.338;2023-01-08T10:29:41;9.00;46.30
20231;DHT22;10274;49.022;9.338;2023-01-08T10:32:14;9.00;31.50
20231;DHT22;10274;49.022;9.338;2023-01-08T10:34:44;9.00;31.50
20231;DHT22;10274;49.022;9.338;2023-01-08T10:37:30;9.10;28.70
20231;DHT22;10274;49.022;9.338;2023-01-08T10:40:03;9.00;28.90
20231;DHT22;10274;49.022;9.338;2023-01-08T10:42:33;9.10;49.00
20231;DHT22;10274;49.022;9.338;2023-01-08T10:45:03;9.10;38.40
20231;DHT22;10274;49.022;9.338;2023-01-08T10:47:33;9.20;12.80
20231;DHT22;10274;49.022;9.338;2023-01-08T10:50:03;9.20;5.70
20231;DHT22;10274;49.022;9.338;2023-01-08T10:52:32;9.30;1.00
20231;DHT22;10274;49.022;9.338;2023-01-08T10:55:11;9.20;28.10
20231;DHT22;10274;49.022;9.338;2023-01-08T10:57:40;9.30;15.30
20231;DHT22;10274;49.022;9.338;2023-01-08T11:00:22;9.30;1.00
20231;DHT22;10274;49.022;9.338;2023-01-08T11:02:50;9.30;1.00
20231;DHT22;10274;49.022;9.338;2023-01-08T11:05:17;9.40;1.00
20231;DHT22;10274;49.022;9.338;2023-01-08T11:07:47;9.40;1.00
20231;DHT22;10274;49.022;9.338;2023-01-08T11:10:22;9.40;12.00
20231;DHT22;10274;49.022;9.338;2023-01-08T11:12:54;9.40;1.00
20231;DHT22;10274;49.022;9.338;2023-01-08T11:15:30;9.50;1.00
20231;DHT22;10274;49.022;9.338;2023-01-08T11:18:15;9.50;1.00
20231;DHT22;10274;49.022;9.338;2023-01-08T11:20:43;9.50;1.00
20231;DHT22;10274;49.022;9.338;2023-01-08T11:23:18;9.50;1.00
20231;DHT22;10274;49.022;9.338;2023-01-08T11:25:53;9.50;1.00
20231;DHT22;10274;49.022;9.338;2023-01-08T11:28:26;9.60;1.00
20231;DHT22;10274;49.022;9.338;2023-01-08T11:31:03;9.50;1.00
20231;DHT22;10274;49.022;9.338;2023-01-08T11:33:38;9.60;1.00
20231;DHT22;10274;49.022;9.338;2023-01-08T11:36:11;9.60;1.00
20231;DHT22;10274;49.022;9.338;2023-01-08T11:38:39;9.60;1.00
20231;DHT22;10274;49.022;9.338;2023-01-08T11:41:16;9.60;1.00
20231;DHT22;10274;49.022;9.338;2023-01-08T11:44:03;9.60;1.00
20231;DHT22;10274;49.022;9.338;2023-01-08T11:46:39;9.60;1.00
20231;DHT22;10274;49.022;9.338;2023-01-08T11:49:35;9.70;1.00
20231;DHT22;10274;49.022;9.338;2023-01-08T11:52:27;9.70;1.00
20231;DHT22;10274;49.022;9.338;2023-01-08T11:55:15;9.70;1.00
20231;DHT22;10274;49.022;9.338;2023-01-08T11:57:58;9.80;1.00
20231;DHT22;10274;49.022;9.338;2023-01-08T12:00:37;9.90;1.00
20231;DHT22;10274;49.022;9.338;2023-01-08T12:03:13;9.90;1.00
20231;DHT22;10274;49.022;9.338;2023-01-08T12:05:45;9.90;1.00
20231;DHT22;10274;49.022;9.338;2023-01-08T12:08:22;9.90;1.00
20231;DHT22;10274;49.022;9.338;2023-01-08T12:11:00;10.00;1.00
20231;DHT22;10274;49.022;9.338;2023-01-08T12:13:43;10.00;1.00
20231;DHT22;10274;49.022;9.338;2023-01-08T12:16:21;10.00;1.00
20231;DHT22;10274;49.022;9.338;2023-01-08T12:19:06;10.00;1.00
20231;DHT22;10274;49.022;9.338;2023-01-08T12:21:49;10.10;1.00
20231;DHT22;10274;49.022;9.338;2023-01-08T12:24:47;10.00;1.00
20231;DHT22;10274;49.022;9.338;2023-01-08T12:27:22;10.10;1.00
20231;DHT22;10274;49.022;9.338;2023-01-08T12:30:05;10.10;1.00
20231;DHT22;10274;49.022;9.338;2023-01-08T12:32:36;10.20;1.00
20231;DHT22;10274;49.022;9.338;2023-01-08T12:35:09;10.20;1.00
20231;DHT22;10274;49.022;9.338;2023-01-08T12:37:44;10.30;1.00
20231;DHT22;10274;49.022;9.338;2023-01-08T12:40:16;10.30;1.00
20231;DHT22;10274;49.022;9.338;2023-01-08T12:42:45;10.30;1.00
20231;DHT22;10274;49.022;9.338;2023-01-08T12:45:16;10.40;1.00
20231;DHT22;10274;49.022;9.338;2023-01-08T12:47:46;10.40;1.00
20231;DHT22;10274;49.022;9.338;2023-01-08T12:50:30;10.40;1.00
20231;DHT22;10274;49.022;9.338;2023-01-08T12:53:03;10.40;1.00
20231;DHT22;10274;49.022;9.338;2023-01-08T12:55:41;10.40;1.00
20231;DHT22;10274;49.022;9.338;2023-01-08T12:58:20;10.40;1.00
20231;DHT22;10274;49.022;9.338;2023-01-08T13:00:55;10.40;1.00
20231;DHT22;10274;49.022;9.338;2023-01-08T13:03:27;10.50;1.00
20231;DHT22;10274;49.022;9.338;2023-01-08T13:06:05;10.50;1.00
20231;DHT22;10274;49.022;9.338;2023-01-08T13:08:35;10.50;1.00
20231;DHT22;10274;49.022;9.338;2023-01-08T13:11:03;10.50;1.00
20231;DHT22;10274;49.022;9.338;2023-01-08T13:13:32;10.50;1.00
20231;DHT22;10274;49.022;9.338;2023-01-08T13:16:07;10.50;1.00
20231;DHT22;10274;49.022;9.338;2023-01-08T13:18:34;10.50;1.00
20231;DHT22;10274;49.022;9.338;2023-01-08T13:21:02;10.50;1.00
20231;DHT22;10274;49.022;9.338;2023-01-08T13:23:31;10.50;1.00
20231;DHT22;10274;49.022;9.338;2023-01-08T13:26:01;10.50;1.00
20231;DHT22;10274;49.022;9.338;2023-01-08T13:28:38;10.50;1.00
20231;DHT22;10274;49.022;9.338;2023-01-08T13:31:08;10.40;1.00
20231;DHT22;10274;49.022;9.338;2023-01-08T13:33:38;10.40;1.00
20231;DHT22;10274;49.022;9.338;2023-01-08T13:36:17;10.40;1.00
20231;DHT22;10274;49.022;9.338;2023-01-08T13:38:45;10.40;1.00
20231;DHT22;10274;49.022;9.338;2023-01-08T13:41:27;10.40;1.00
20231;DHT22;10274;49.022;9.338;2023-01-08T13:43:58;10.50;1.00
20231;DHT22;10274;49.022;9.338;2023-01-08T13:46:26;10.50;1.00
20231;DHT22;10274;49.022;9.338;2023-01-08T13:48:57;10.50;1.00
20231;DHT22;10274;49.022;9.338;2023-01-08T13:51:30;10.50;1.00
20231;DHT22;10274;49.022;9.338;2023-01-08T13:53:58;10.50;1.00
20231;DHT22;10274;49.022;9.338;2023-01-08T13:56:30;10.50;1.00
20231;DHT22;10274;49.022;9.338;2023-01-08T13:58:57;10.50;1.00
20231;DHT22;10274;49.022;9.338;2023-01-08T14:01:24;10.60;1.00
20231;DHT22;10274;49.022;9.338;2023-01-08T14:03:51;10.50;1.00
20231;DHT22;10274;49.022;9.338;2023-01-08T14:06:19;10.50;1.00
20231;DHT22;10274;49.022;9.338;2023-01-08T14:08:49;10.50;1.00
20231;DHT22;10274;49.022;9.338;2023-01-08T14:11:16;10.50;1.00
20231;DHT22;10274;49.022;9.338;2023-01-08T14:13:45;10.50;1.00
20231;DHT22;10274;49.022;9.338;2023-01-08T14:16:13;10.50;1.00
20231;DHT22;10274;49.022;9.338;2023-01-08T14:18:41;10.40;1.00
20231;DHT22;10274;49.022;9.338;2023-01-08T14:21:08;10.30;1.00
20231;DHT22;10274;49.022;9.338;2023-01-08T14:23:38;10.40;1.00
20231;DHT22;10274;49.022;9.338;2023-01-08T14:26:06;10.50;1.00
20231;DHT22;10274;49.022;9.338;2023-01-08T14:28:35;11.30;99.90
20231;DHT22;10274;49.022;9.338;2023-01-08T14:31:03;11.10;99.90
20231;DHT22;10274;49.022;9.338;2023-01-08T14:33:33;10.80;1.00
20231;DHT22;10274;49.022;9.338;2023-01-08T14:36:01;10.70;99.90
20231;DHT22;10274;49.022;9.338;2023-01-08T14:38:29;10.70;99.90
20231;DHT22;10274;49.022;9.338;2023-01-08T14:43:24;10.60;1.00
20231;DHT22;10274;49.022;9.338;2023-01-08T14:45:51;10.60;99.90
20231;DHT22;10274;49.022;9.338;2023-01-08T14:48:23;10.60;99.90
20231;DHT22;10274;49.022;9.338;2023-01-08T14:51:00;10.50;99.90
20231;DHT22;10274;49.022;9.338;2023-01-08T14:53:29;10.50;99.90
20231;DHT22;10274;49.022;9.338;2023-01-08T14:55:57;10.50;99.90
20231;DHT22;10274;49.022;9.338;2023-01-08T14:58:27;10.60;99.90
20231;DHT22;10274;49.022;9.338;2023-01-08T15:00:56;10.60;99.90
20231;DHT22;10274;49.022;9.338;2023-01-08T15:03:34;10.60;99.90
20231;DHT22;10274;49.022;9.338;2023-01-08T15:06:01;10.80;99.90
20231;DHT22;10274;49.022;9.338;2023-01-08T15:08:34;10.80;99.90
20231;DHT22;10274;49.022;9.338;2023-01-08T15:11:03;10.70;99.90
20231;DHT22;10274;49.022;9.338;2023-01-08T15:13:31;10.60;99.90
20231;DHT22;10274;49.022;9.338;2023-01-08T15:16:03;10.60;99.90
20231;DHT22;10274;49.022;9.338;2023-01-08T15:18:34;10.50;99.90
20231;DHT22;10274;49.022;9.338;2023-01-08T15:21:01;10.50;99.90
20231;DHT22;10274;49.022;9.338;2023-01-08T15:23:36;10.50;99.90
20231;DHT22;10274;49.022;9.338;2023-01-08T15:26:03;10.50;99.90
20231;DHT22;10274;49.022;9.338;2023-01-08T15:28:34;10.50;99.90
20231;DHT22;10274;49.022;9.338;2023-01-08T15:31:01;10.30;99.90
20231;DHT22;10274;49.022;9.338;2023-01-08T15:33:27;10.30;99.90
20231;DHT22;10274;49.022;9.338;2023-01-08T15:35:55;10.30;99.90
20231;DHT22;10274;49.022;9.338;2023-01-08T15:38:22;10.30;99.90
20231;DHT22;10274;49.022;9.338;2023-01-08T15:40:49;10.30;99.90
20231;DHT22;10274;49.022;9.338;2023-01-08T15:43:17;10.20;99.90
20231;DHT22;10274;49.022;9.338;2023-01-08T15:45:44;10.20;99.90
20231;DHT22;10274;49.022;9.338;2023-01-08T15:48:12;10.10;99.90
20231;DHT22;10274;49.022;9.338;2023-01-08T15:50:40;10.10;99.90
20231;DHT22;10274;49.022;9.338;2023-01-08T15:53:14;10.10;99.90
20231;DHT22;10274;49.022;9.338;2023-01-08T15:55:41;10.00;1.00
20231;DHT22;10274;49.022;9.338;2023-01-08T15:58:10;10.10;1.00
20231;DHT22;10274;49.022;9.338;2023-01-08T16:00:37;10.00;1.00
20231;DHT22;10274;49.022;9.338;2023-01-08T16:03:04;10.10;99.90
20231;DHT22;10274;49.022;9.338;2023-01-08T16:05:32;10.10;1.00
20231;DHT22;10274;49.022;9.338;2023-01-08T16:07:59;10.10;99.90
20231;DHT22;10274;49.022;9.338;2023-01-08T16:10:27;10.00;1.00